Impacts TAF Board
For situational awareness. Not to be used for flight planning purposes.
IDs:

KDFW - Dallas-Ft Worth Intl, TX, US

Issued at 2320 UTC 04 Jul 2022
Updated at 0008 UTC 05 Jul 2022
Potential Impact None Slight Moderate High
Time2353Z 05/01Z 05/02Z 05/03Z 05/04Z 05/05Z 05/06Z 05/07Z 05/08Z 05/09Z 05/10Z 05/11Z 05/12Z 05/13Z>>
Type OBS PRVL PRVL PRVL PRVL PRVL PRVL PRVL PRVL PRVL PRVL PRVL PRVL PRVL
VIS 10 >6 >6 >6 >6 >6 >6 >6 >6 >6 >6 >6 >6 >6
CIG -- -- -- -- -- -- -- -- -- -- -- -- -- --
Cover FEW SKC SKC SKC SKC SKC SKC SKC SKC SKC SKC SKC SKC SKC
FltCat VFR VFR VFR VFR VFR VFR VFR VFR VFR VFR VFR VFR VFR VFR
WX -- -- -- -- -- -- -- -- -- -- -- -- -- --
WDir 180 170 170 170 170 170 170 170 170 170 170 170 170 170
WSpd 16 14 14 14 14 14 14 14 14 14 14 14 14 14
WGst 23 -- -- -- -- -- -- -- -- -- -- -- -- --
WSHgt -- -- -- -- -- -- -- -- -- -- -- -- -- --
WSDir -- -- -- -- -- -- -- -- -- -- -- -- -- --
WSSpd -- -- -- -- -- -- -- -- -- -- -- -- -- --
Raw TAF
KDFW 042320Z 0500/0606 17014KT P6SM SKC

Raw METAR
KDFW 042353Z 18016G23KT 10SM FEW065 37/14 A2991 RMK AO2 SLP117 T03670139 10378 20350 56014
KDFW 042253Z 17012G19KT 10SM FEW065 37/14 A2992 RMK AO2 SLP122 T03720144
KDFW 042153Z 18015G20KT 10SM FEW065 37/15 A2993 RMK AO2 SLP125 T03720150

METAR Board
Radar Display
Forecast Discussion
For situational awareness. Not to be used for flight planning purposes.